Time;durP1;ratioP1;P1;durP2;ratioP2;P2;SDS_P1;SDS_P2;PMS_P1;PMS_P2;Temp;Humidity;BMP_temperature;BMP_pressure;BME280_temperature;BME280_humidity;BME280_pressure;Samples;Min_cycle;Max_cycle;Signal;HPM_P1;HPM_P2
2021/01/05 00:00:22;;;;;;;76.47;51.50;;;8.40;99.90;;;;;;5073800;28;20039;-76
2021/01/05 00:02:50;;;;;;;77.25;50.75;;;8.40;99.90;;;;;;5073314;28;20024;-76
2021/01/05 00:05:16;;;;;;;78.15;49.40;;;8.30;99.90;;;;;;5073404;28;20176;-76
2021/01/05 00:07:42;;;;;;;80.20;48.58;;;8.30;99.90;;;;;;5073550;28;20877;-76
2021/01/05 00:10:09;;;;;;;79.63;48.92;;;8.30;99.90;;;;;;5073221;28;20073;-76
2021/01/05 00:12:35;;;;;;;78.15;51.47;;;8.30;99.90;;;;;;5073042;28;20052;-76
2021/01/05 00:15:03;;;;;;;73.80;47.35;;;8.20;99.90;;;;;;5073139;28;20024;-76
2021/01/05 00:17:29;;;;;;;77.00;48.97;;;8.20;99.90;;;;;;5073048;28;20059;-76
2021/01/05 00:19:54;;;;;;;83.88;48.97;;;8.20;99.90;;;;;;5072822;28;20064;-76
2021/01/05 00:22:20;;;;;;;82.13;49.53;;;8.20;99.90;;;;;;5072873;28;20075;-76
2021/01/05 00:24:46;;;;;;;87.65;50.88;;;8.10;99.90;;;;;;5072794;28;20067;-76
2021/01/05 00:27:13;;;;;;;88.68;49.17;;;8.00;99.90;;;;;;5072805;28;20028;-76
2021/01/05 00:29:39;;;;;;;86.03;48.70;;;8.00;99.90;;;;;;5072786;28;20437;-76
2021/01/05 00:32:09;;;;;;;81.28;47.17;;;8.00;99.90;;;;;;5072728;28;20491;-76
2021/01/05 00:34:35;;;;;;;81.25;47.00;;;8.00;99.90;;;;;;5072598;28;20028;-76
2021/01/05 00:37:02;;;;;;;78.20;44.25;;;8.00;99.90;;;;;;5072701;28;20177;-76
2021/01/05 00:39:28;;;;;;;78.47;42.30;;;8.00;99.90;;;;;;5072438;28;20036;-76
2021/01/05 00:41:54;;;;;;;77.35;43.17;;;7.90;99.90;;;;;;5072345;28;20380;-76
2021/01/05 00:44:20;;;;;;;75.55;42.10;;;7.90;99.90;;;;;;5072393;28;20025;-76
2021/01/05 00:46:45;;;;;;;72.55;42.78;;;7.90;99.90;;;;;;5072249;28;20025;-76
2021/01/05 00:49:11;;;;;;;74.20;43.22;;;7.90;99.90;;;;;;5072303;28;20025;-76
2021/01/05 00:51:37;;;;;;;81.85;44.60;;;7.90;99.90;;;;;;5072332;28;20028;-76
2021/01/05 00:54:03;;;;;;;86.68;44.42;;;7.90;99.90;;;;;;5072027;28;20396;-76
2021/01/05 00:56:29;;;;;;;83.88;42.42;;;7.80;99.90;;;;;;5072072;28;20078;-76
2021/01/05 00:58:55;;;;;;;74.97;40.95;;;7.80;99.90;;;;;;5071464;28;20498;-75
2021/01/05 01:01:22;;;;;;;72.32;40.30;;;7.80;99.90;;;;;;5071975;28;20025;-76
2021/01/05 01:03:49;;;;;;;73.75;37.95;;;7.80;99.90;;;;;;5072111;28;20024;-76
2021/01/05 01:06:16;;;;;;;71.47;38.05;;;7.80;99.90;;;;;;5071811;28;20031;-76
2021/01/05 01:08:42;;;;;;;75.15;40.00;;;7.80;99.90;;;;;;5072034;28;20391;-76
2021/01/05 01:11:08;;;;;;;72.68;37.55;;;7.80;99.90;;;;;;5072066;28;20498;-76
2021/01/05 01:13:34;;;;;;;71.00;34.85;;;7.70;99.90;;;;;;5053835;28;20025;-76
2021/01/05 01:16:00;;;;;;;68.18;35.33;;;7.60;99.90;;;;;;5071600;28;20029;-75
2021/01/05 01:18:26;;;;;;;61.97;33.47;;;7.60;99.90;;;;;;5071666;28;20026;-76
2021/01/05 01:20:52;;;;;;;69.65;36.95;;;7.60;99.90;;;;;;5071846;28;20028;-75
2021/01/05 01:23:18;;;;;;;60.85;32.90;;;7.60;99.90;;;;;;5053859;28;20039;-75
2021/01/05 01:25:44;;;;;;;61.25;33.63;;;7.60;99.90;;;;;;5071508;28;20033;-75
2021/01/05 01:28:10;;;;;;;65.97;35.47;;;7.60;99.90;;;;;;5071378;28;20475;-75
2021/01/05 01:30:36;;;;;;;71.50;35.03;;;7.50;99.90;;;;;;5071448;28;20045;-75
2021/01/05 01:33:02;;;;;;;65.88;33.08;;;7.50;99.90;;;;;;5071377;28;20017;-75
2021/01/05 01:35:28;;;;;;;72.53;34.90;;;7.50;99.90;;;;;;5071407;28;20033;-76
2021/01/05 01:37:54;;;;;;;62.35;33.45;;;7.50;99.90;;;;;;5071349;28;20108;-75
2021/01/05 01:40:33;;;;;;;64.78;34.65;;;7.50;99.90;;;;;;5071283;28;20032;-75
2021/01/05 01:43:00;;;;;;;67.50;35.80;;;7.50;99.90;;;;;;5071314;28;20040;-76
2021/01/05 01:45:26;;;;;;;63.97;33.50;;;7.50;99.90;;;;;;5071289;28;20078;-75
2021/01/05 01:47:53;;;;;;;60.25;34.72;;;7.60;99.90;;;;;;5071189;28;20017;-76
2021/01/05 01:50:28;;;;;;;65.05;32.50;;;7.60;99.90;;;;;;5071277;28;20422;-76
2021/01/05 01:53:05;;;;;;;63.33;33.25;;;7.50;99.90;;;;;;5071251;28;20033;-75
2021/01/05 01:55:52;;;;;;;62.15;31.80;;;7.50;99.90;;;;;;5071314;28;20059;-76
2021/01/05 01:58:24;;;;;;;55.17;31.35;;;7.50;99.90;;;;;;5071670;28;20039;-76
2021/01/05 02:01:02;;;;;;;63.67;33.10;;;7.50;99.90;;;;;;5071229;28;20031;-76
2021/01/05 02:03:55;;;;;;;57.15;30.70;;;7.60;99.90;;;;;;5071337;28;20029;-76
2021/01/05 02:06:39;;;;;;;47.85;26.08;;;7.50;99.90;;;;;;5071500;28;20020;-76
2021/01/05 02:09:16;;;;;;;52.13;26.70;;;7.50;99.90;;;;;;5071321;28;20017;-77
2021/01/05 02:11:54;;;;;;;64.47;29.38;;;7.40;99.90;;;;;;5071336;28;20021;-76
2021/01/05 02:14:47;;;;;;;53.50;29.48;;;7.40;99.90;;;;;;5053127;28;20028;-76
2021/01/05 02:17:35;;;;;;;48.75;27.63;;;7.40;99.90;;;;;;5071176;28;20391;-76
2021/01/05 02:20:11;;;;;;;59.15;30.30;;;7.40;99.90;;;;;;5071369;28;20784;-76
2021/01/05 02:22:58;;;;;;;60.33;28.98;;;7.50;99.90;;;;;;5071014;28;20035;-76
2021/01/05 02:25:27;;;;;;;67.72;30.48;;;7.50;99.90;;;;;;5070808;28;20029;-76
2021/01/05 02:28:01;;;;;;;59.05;29.48;;;7.40;99.90;;;;;;5070911;28;20078;-76
2021/01/05 02:30:34;;;;;;;62.15;30.60;;;7.50;99.90;;;;;;5070867;28;20059;-76
2021/01/05 02:33:26;;;;;;;59.45;30.90;;;7.50;99.90;;;;;;5070933;28;20027;-76
2021/01/05 02:36:07;;;;;;;65.80;33.20;;;7.50;99.90;;;;;;5070935;28;20075;-76
2021/01/05 02:39:11;;;;;;;66.82;32.95;;;7.50;99.90;;;;;;5070991;28;20090;-76
2021/01/05 02:41:51;;;;;;;70.68;33.55;;;7.40;99.90;;;;;;5070760;28;20031;-76
2021/01/05 02:44:19;;;;;;;70.75;33.88;;;7.40;99.90;;;;;;5070839;28;20041;-76
2021/01/05 02:47:05;;;;;;;64.70;33.05;;;7.50;99.90;;;;;;5070807;28;20024;-76
2021/01/05 02:49:53;;;;;;;76.05;35.53;;;7.50;99.90;;;;;;5070888;28;20033;-76
2021/01/05 02:52:58;;;;;;;78.57;33.80;;;7.50;99.90;;;;;;5070627;28;20472;-76
2021/01/05 02:55:33;;;;;;;73.28;36.67;;;7.50;99.90;;;;;;5070545;28;20466;-76
2021/01/05 02:58:17;;;;;;;80.50;35.30;;;7.50;99.90;;;;;;5070550;28;20025;-76
2021/01/05 03:00:43;;;;;;;75.32;34.83;;;7.50;99.90;;;;;;5070640;28;20039;-76
2021/01/05 03:03:35;;;;;;;79.03;35.70;;;7.50;99.90;;;;;;5070623;28;20025;-76
2021/01/05 03:06:16;;;;;;;81.00;37.17;;;7.50;99.90;;;;;;5070738;28;20028;-76
2021/01/05 03:09:24;;;;;;;76.13;36.42;;;7.50;99.90;;;;;;5070610;28;20082;-76
2021/01/05 03:12:15;;;;;;;74.22;37.00;;;7.50;99.90;;;;;;5041890;28;20067;-76
2021/01/05 03:14:53;;;;;;;84.53;38.10;;;7.50;99.90;;;;;;5070664;28;20032;-76
2021/01/05 03:17:30;;;;;;;67.32;36.72;;;7.50;99.90;;;;;;5070372;28;20032;-76
2021/01/05 03:20:35;;;;;;;71.13;37.40;;;7.50;99.90;;;;;;5070721;28;20107;-76
2021/01/05 03:23:04;;;;;;;64.60;37.38;;;7.40;99.90;;;;;;5051384;28;20044;-76
2021/01/05 03:25:33;;;;;;;79.40;39.30;;;7.50;99.90;;;;;;5074109;28;20107;-76
2021/01/05 03:28:02;;;;;;;62.45;35.17;;;7.50;99.90;;;;;;5074083;28;20017;-76
2021/01/05 03:30:34;;;;;;;63.05;35.28;;;7.50;99.90;;;;;;5073905;28;20051;-76
2021/01/05 03:33:00;;;;;;;73.65;36.95;;;7.50;99.90;;;;;;5073881;28;20029;-76
2021/01/05 03:35:27;;;;;;;66.05;35.60;;;7.40;99.90;;;;;;5074156;28;20021;-76
2021/01/05 03:37:57;;;;;;;61.20;36.70;;;7.50;99.90;;;;;;5073989;28;20098;-76
2021/01/05 03:40:23;;;;;;;71.35;40.10;;;7.40;99.90;;;;;;5055971;28;20518;-76
2021/01/05 03:42:49;;;;;;;63.70;36.35;;;7.40;99.90;;;;;;5073958;28;20025;-76
2021/01/05 03:45:27;;;;;;;62.92;36.63;;;7.40;99.90;;;;;;5073637;28;20028;-76
2021/01/05 03:47:53;;;;;;;80.38;39.80;;;7.50;99.90;;;;;;5073799;28;20025;-76
2021/01/05 03:50:19;;;;;;;66.75;36.60;;;7.40;99.90;;;;;;5073771;28;20490;-76
2021/01/05 03:52:45;;;;;;;61.70;37.95;;;7.50;99.90;;;;;;5073796;28;20063;-76
2021/01/05 03:55:13;;;;;;;69.35;42.10;;;7.40;99.90;;;;;;5073618;28;20428;-76
2021/01/05 03:57:39;;;;;;;65.72;41.55;;;7.40;99.90;;;;;;5073677;28;20048;-76
2021/01/05 04:00:12;;;;;;;73.50;42.25;;;7.40;99.90;;;;;;5073389;28;20052;-76
2021/01/05 04:02:38;;;;;;;75.15;47.55;;;7.40;99.90;;;;;;5073222;28;20020;-76
2021/01/05 04:05:05;;;;;;;81.22;50.03;;;7.40;99.90;;;;;;5073122;28;20512;-76
2021/01/05 04:07:31;;;;;;;64.97;41.63;;;7.40;99.90;;;;;;5073242;28;20507;-76
2021/01/05 04:09:57;;;;;;;67.72;42.85;;;7.40;99.90;;;;;;5073192;28;20377;-76
2021/01/05 04:12:23;;;;;;;70.22;42.60;;;7.40;99.90;;;;;;5073175;28;20024;-76
2021/01/05 04:14:49;;;;;;;70.30;42.13;;;7.30;99.90;;;;;;5073282;28;20071;-76
2021/01/05 04:17:15;;;;;;;66.93;42.63;;;7.30;99.90;;;;;;5073300;28;20082;-76
2021/01/05 04:19:40;;;;;;;71.05;42.75;;;7.40;99.90;;;;;;5073090;28;20051;-76
2021/01/05 04:22:06;;;;;;;64.88;41.65;;;7.40;99.90;;;;;;5072934;28;20029;-76
2021/01/05 04:24:32;;;;;;;63.92;41.55;;;7.30;99.90;;;;;;5072790;28;20487;-76
2021/01/05 04:26:58;;;;;;;69.03;41.08;;;7.30;99.90;;;;;;5072845;28;20017;-76
2021/01/05 04:29:24;;;;;;;64.78;41.85;;;7.30;99.90;;;;;;5072565;28;20080;-76
2021/01/05 04:31:50;;;;;;;67.40;43.15;;;7.30;99.90;;;;;;5072680;28;20029;-76
2021/01/05 04:34:16;;;;;;;69.53;44.70;;;7.20;99.90;;;;;;5071652;28;20056;-76
2021/01/05 04:36:42;;;;;;;81.95;49.50;;;7.20;99.90;;;;;;5072715;28;20028;-76
2021/01/05 04:39:09;;;;;;;73.95;45.28;;;7.10;99.90;;;;;;5072816;28;20020;-76
2021/01/05 04:41:52;;;;;;;72.57;44.60;;;7.20;99.90;;;;;;5072543;28;20109;-76
2021/01/05 04:44:21;;;;;;;73.80;47.88;;;7.10;99.90;;;;;;5072429;28;20076;-76
2021/01/05 04:46:59;;;;;;;64.22;42.08;;;7.10;99.90;;;;;;5072460;28;20021;-76
2021/01/05 04:49:32;;;;;;;66.32;41.90;;;7.10;99.90;;;;;;5072322;28;20024;-76
2021/01/05 04:52:10;;;;;;;66.07;42.50;;;7.00;99.90;;;;;;5072209;28;20476;-76
2021/01/05 04:54:48;;;;;;;61.20;40.80;;;7.00;99.90;;;;;;5072241;28;20103;-76
2021/01/05 04:57:20;;;;;;;65.28;40.60;;;6.90;99.90;;;;;;5072219;28;20482;-76
2021/01/05 04:59:52;;;;;;;61.97;39.45;;;6.90;99.90;;;;;;5072191;28;20040;-76
2021/01/05 05:02:34;;;;;;;61.65;41.30;;;6.90;99.90;;;;;;5072016;28;20051;-76
2021/01/05 05:05:05;;;;;;;61.47;40.15;;;6.80;99.90;;;;;;5053856;28;20044;-76
2021/01/05 05:07:31;;;;;;;59.60;41.13;;;6.80;99.90;;;;;;5072121;28;20017;-76
2021/01/05 05:10:09;;;;;;;67.13;44.72;;;6.80;99.90;;;;;;5071921;28;20029;-76
2021/01/05 05:13:04;;;;;;;68.32;42.88;;;6.80;99.90;;;;;;5054135;28;20036;-76
2021/01/05 05:15:39;;;;;;;64.28;42.90;;;6.70;99.90;;;;;;5068170;28;20044;-76
2021/01/05 05:18:16;;;;;;;66.47;49.33;;;6.70;99.90;;;;;;5072222;28;20103;-76
2021/01/05 05:20:57;;;;;;;69.55;44.03;;;6.70;99.90;;;;;;5072074;28;20046;-76
2021/01/05 05:23:33;;;;;;;64.90;44.15;;;6.60;99.90;;;;;;5072101;28;20031;-76
2021/01/05 05:26:08;;;;;;;66.88;45.50;;;6.60;99.90;;;;;;5071674;28;20021;-76
2021/01/05 05:28:42;;;;;;;61.45;43.00;;;6.60;99.90;;;;;;5072000;28;20052;-76
2021/01/05 05:31:12;;;;;;;70.57;45.00;;;6.60;99.90;;;;;;5053687;28;20044;-76
2021/01/05 05:33:40;;;;;;;69.13;45.38;;;6.50;99.90;;;;;;5071615;28;20025;-76
2021/01/05 05:36:15;;;;;;;62.47;42.08;;;6.50;99.90;;;;;;5071910;28;20048;-76
2021/01/05 05:38:55;;;;;;;72.93;45.50;;;6.50;99.90;;;;;;5071692;28;20028;-77
2021/01/05 05:41:42;;;;;;;90.78;52.90;;;6.50;99.90;;;;;;5071904;28;20139;-77
2021/01/05 05:44:27;;;;;;;76.88;49.00;;;6.50;99.90;;;;;;5071341;28;20039;-77
2021/01/05 05:47:13;;;;;;;75.20;49.17;;;6.50;99.90;;;;;;5071673;28;20020;-77
2021/01/05 05:49:58;;;;;;;72.50;50.30;;;6.50;99.90;;;;;;5071784;28;20084;-77
2021/01/05 05:52:29;;;;;;;77.80;50.40;;;6.40;99.90;;;;;;5071647;28;20171;-77
2021/01/05 05:54:57;;;;;;;95.63;53.33;;;6.40;99.90;;;;;;5071742;28;20024;-76
2021/01/05 05:57:34;;;;;;;110.25;62.10;;;6.40;99.90;;;;;;5071423;28;20038;-76
2021/01/05 06:00:21;;;;;;;102.03;62.65;;;6.40;99.90;;;;;;5071334;28;20034;-76
2021/01/05 06:02:46;;;;;;;103.00;63.30;;;6.40;99.90;;;;;;5071214;28;20071;-76
2021/01/05 06:05:34;;;;;;;107.85;69.05;;;6.40;99.90;;;;;;5053070;28;20476;-76
2021/01/05 06:08:01;;;;;;;106.55;69.82;;;6.40;99.90;;;;;;5053259;28;20800;-76
2021/01/05 06:10:27;;;;;;;141.98;72.72;;;6.40;99.90;;;;;;5071061;28;20430;-76
2021/01/05 06:12:54;;;;;;;97.45;66.15;;;6.40;99.90;;;;;;5071301;28;20020;-76
2021/01/05 06:15:20;;;;;;;110.85;75.93;;;6.40;99.90;;;;;;5071070;28;20071;-76
2021/01/05 06:17:47;;;;;;;111.05;72.38;;;6.40;99.90;;;;;;5071217;28;20495;-76
2021/01/05 06:20:13;;;;;;;110.70;64.03;;;6.40;99.90;;;;;;5071324;28;20538;-76
2021/01/05 06:22:39;;;;;;;115.05;69.70;;;6.30;99.90;;;;;;5071058;28;20055;-76
2021/01/05 06:25:06;;;;;;;122.80;76.82;;;6.30;99.90;;;;;;5070878;28;20459;-76
2021/01/05 06:27:33;;;;;;;135.57;88.18;;;6.40;99.90;;;;;;5071021;28;20094;-76
2021/01/05 06:29:58;;;;;;;141.38;90.88;;;6.30;99.90;;;;;;5070847;28;20045;-76
2021/01/05 06:32:24;;;;;;;157.85;98.72;;;6.30;99.90;;;;;;5053118;28;20082;-76
2021/01/05 06:34:50;;;;;;;160.20;99.00;;;6.30;99.90;;;;;;5070814;28;20036;-76
2021/01/05 06:37:17;;;;;;;138.30;81.32;;;6.30;99.90;;;;;;5070858;28;20426;-76
2021/01/05 06:39:43;;;;;;;145.10;85.80;;;6.30;99.90;;;;;;5071281;28;20043;-76
2021/01/05 06:42:09;;;;;;;103.15;63.25;;;6.30;99.90;;;;;;5071266;28;20052;-76
2021/01/05 06:44:35;;;;;;;98.60;60.40;;;6.30;99.90;;;;;;5070961;28;20067;-76
2021/01/05 06:47:01;;;;;;;118.07;65.35;;;6.30;99.90;;;;;;5070914;28;20098;-76
2021/01/05 06:49:28;;;;;;;103.82;60.88;;;6.30;99.90;;;;;;5070768;28;20025;-76
2021/01/05 06:51:55;;;;;;;94.68;56.03;;;6.30;99.90;;;;;;5070618;28;20078;-76
2021/01/05 06:54:21;;;;;;;72.00;43.17;;;6.30;99.90;;;;;;5070735;28;20032;-76
2021/01/05 06:56:55;;;;;;;80.45;44.33;;;6.30;99.90;;;;;;5072047;28;20066;-76
2021/01/05 06:59:22;;;;;;;77.78;45.67;;;6.30;99.90;;;;;;5074590;28;20063;-76
2021/01/05 07:01:59;;;;;;;75.47;45.40;;;6.30;99.90;;;;;;5074535;28;20146;-76
2021/01/05 07:04:25;;;;;;;92.18;55.58;;;6.40;99.90;;;;;;5074300;28;20032;-76
2021/01/05 07:06:51;;;;;;;98.50;57.72;;;6.40;99.90;;;;;;5074368;28;20024;-76
2021/01/05 07:09:19;;;;;;;84.30;52.47;;;6.40;99.90;;;;;;5074301;28;20021;-76
2021/01/05 07:11:45;;;;;;;78.13;46.90;;;6.30;99.90;;;;;;5074176;28;20144;-76
2021/01/05 07:14:13;;;;;;;97.25;54.97;;;6.40;99.90;;;;;;5074132;28;20024;-76
2021/01/05 07:16:39;;;;;;;85.75;48.20;;;6.40;99.90;;;;;;5074023;28;20384;-76
2021/01/05 07:19:05;;;;;;;80.60;47.15;;;6.40;99.90;;;;;;5074063;28;20024;-76
2021/01/05 07:21:31;;;;;;;85.07;49.83;;;6.40;99.90;;;;;;5074080;28;20024;-76
2021/01/05 07:23:57;;;;;;;82.45;48.28;;;6.40;99.90;;;;;;5073971;28;20028;-76
2021/01/05 07:26:23;;;;;;;82.15;43.60;;;6.30;99.90;;;;;;5074083;28;20024;-76
2021/01/05 07:28:49;;;;;;;84.05;48.80;;;6.30;99.90;;;;;;5074220;28;20024;-77
2021/01/05 07:31:14;;;;;;;75.22;44.03;;;6.30;99.90;;;;;;5074218;28;20102;-77
2021/01/05 07:33:40;;;;;;;81.22;46.97;;;6.30;99.90;;;;;;5056454;28;20364;-77
2021/01/05 07:36:23;;;;;;;84.88;50.17;;;6.30;99.90;;;;;;5074221;28;20031;-76
2021/01/05 07:38:49;;;;;;;86.05;46.78;;;6.40;99.90;;;;;;5073889;28;20032;-76
2021/01/05 07:41:15;;;;;;;77.13;46.70;;;6.40;99.90;;;;;;5073995;28;20029;-76
2021/01/05 07:43:41;;;;;;;82.78;47.45;;;6.40;99.90;;;;;;5073474;28;20353;-76
2021/01/05 07:46:07;;;;;;;86.85;51.08;;;6.30;99.90;;;;;;5073666;28;20029;-76
2021/01/05 07:48:32;;;;;;;79.22;46.10;;;6.30;99.90;;;;;;5073522;28;20052;-76
2021/01/05 07:50:58;;;;;;;150.93;86.18;;;6.30;99.90;;;;;;5073552;28;20042;-76
2021/01/05 07:53:24;;;;;;;93.82;50.55;;;6.30;99.90;;;;;;5073705;28;20020;-76
2021/01/05 07:55:50;;;;;;;89.15;51.97;;;6.30;99.90;;;;;;5073471;28;20463;-76
2021/01/05 07:58:16;;;;;;;102.78;57.25;;;6.30;99.90;;;;;;5073676;28;20103;-76
2021/01/05 08:00:42;;;;;;;115.88;63.05;;;6.40;99.90;;;;;;5073618;28;20031;-76
2021/01/05 08:03:12;;;;;;;122.05;62.15;;;6.40;99.90;;;;;;5073474;28;20029;-76
2021/01/05 08:05:38;;;;;;;110.60;59.60;;;6.30;99.90;;;;;;5073378;28;20025;-77
2021/01/05 08:08:04;;;;;;;96.85;54.95;;;6.40;99.90;;;;;;5055158;28;20373;-76
2021/01/05 08:10:32;;;;;;;97.82;56.25;;;6.40;99.90;;;;;;5073329;28;20021;-77
2021/01/05 08:12:59;;;;;;;144.57;76.57;;;6.40;99.90;;;;;;5073329;28;20031;-76
2021/01/05 08:15:29;;;;;;;128.65;69.53;;;6.40;99.90;;;;;;5073114;28;20450;-76
2021/01/05 08:17:55;;;;;;;163.30;91.67;;;6.30;99.90;;;;;;5073150;28;20028;-76
2021/01/05 08:20:24;;;;;;;104.72;58.75;;;6.40;99.90;;;;;;5072840;28;20082;-76
2021/01/05 08:22:51;;;;;;;106.50;59.75;;;6.30;99.90;;;;;;5054800;28;20029;-76
2021/01/05 08:25:18;;;;;;;114.85;63.08;;;6.40;99.90;;;;;;5072957;28;20024;-76
2021/01/05 08:27:47;;;;;;;135.15;64.15;;;6.40;99.90;;;;;;5072978;28;20361;-76
2021/01/05 08:30:23;;;;;;;108.30;59.80;;;6.40;99.90;;;;;;5072813;28;20106;-76
2021/01/05 08:32:50;;;;;;;92.57;53.70;;;6.30;99.90;;;;;;5073006;28;20433;-76
2021/01/05 08:35:19;;;;;;;100.72;57.92;;;6.30;99.90;;;;;;5072610;28;20103;-76
2021/01/05 08:37:45;;;;;;;94.50;52.42;;;6.30;99.90;;;;;;5072603;28;20028;-76
2021/01/05 08:40:18;;;;;;;83.85;48.10;;;6.30;99.90;;;;;;5072829;28;20050;-76
2021/01/05 08:42:43;;;;;;;81.25;46.17;;;6.30;99.90;;;;;;5072737;28;20032;-76
2021/01/05 08:45:10;;;;;;;134.60;72.07;;;6.40;99.90;;;;;;5072494;28;20472;-76
2021/01/05 08:47:36;;;;;;;95.60;53.45;;;6.30;99.90;;;;;;5072546;28;20484;-76
2021/01/05 08:50:04;;;;;;;79.25;46.53;;;6.30;99.90;;;;;;5072440;28;20046;-76
2021/01/05 08:52:30;;;;;;;79.43;46.50;;;6.40;99.90;;;;;;5072300;28;20511;-76
2021/01/05 08:54:56;;;;;;;84.85;49.22;;;6.40;99.90;;;;;;5072172;28;20155;-76
2021/01/05 08:57:22;;;;;;;118.95;61.30;;;6.40;99.90;;;;;;5072383;28;20081;-76
2021/01/05 08:59:48;;;;;;;119.57;44.95;;;6.50;99.90;;;;;;5087919;28;20048;-75
2021/01/05 09:02:14;;;;;;;90.55;38.67;;;6.70;99.90;;;;;;5063697;28;20129;-80
2021/01/05 09:04:40;;;;;;;75.07;42.08;;;7.30;99.90;;;;;;5058113;28;20025;-78
2021/01/05 09:07:07;;;;;;;78.20;43.75;;;7.50;99.90;;;;;;5054942;28;20071;-77
2021/01/05 09:09:33;;;;;;;74.60;43.28;;;7.60;99.90;;;;;;5063279;28;20017;-78
2021/01/05 09:11:59;;;;;;;86.05;46.92;;;7.60;99.90;;;;;;5061248;28;20013;-78
2021/01/05 09:14:26;;;;;;;88.63;44.53;;;7.70;99.90;;;;;;5061043;28;20028;-78
2021/01/05 09:17:00;;;;;;;75.05;39.92;;;7.70;99.90;;;;;;5062722;28;20070;-78
2021/01/05 09:19:27;;;;;;;89.90;49.13;;;7.80;99.90;;;;;;5043981;28;20463;-78
2021/01/05 09:21:53;;;;;;;90.65;53.08;;;7.80;99.90;;;;;;5060257;28;20025;-78
2021/01/05 09:24:19;;;;;;;98.43;59.58;;;7.70;99.90;;;;;;5061445;28;20048;-78
2021/01/05 09:26:51;;;;;;;108.35;57.78;;;7.80;99.90;;;;;;5061669;28;20049;-78
2021/01/05 09:29:17;;;;;;;295.75;203.23;;;7.90;99.90;;;;;;5061043;28;20104;-78
2021/01/05 09:31:44;;;;;;;1999.90;999.90;;;8.00;99.90;;;;;;5061029;28;20097;-78
2021/01/05 09:34:11;;;;;;;1506.63;797.90;;;8.10;99.90;;;;;;5062207;28;20023;-78
2021/01/05 09:36:38;;;;;;;307.63;187.20;;;8.20;99.90;;;;;;5060667;28;20096;-78
2021/01/05 09:39:06;;;;;;;147.90;85.95;;;8.40;99.90;;;;;;5060549;28;20025;-78
2021/01/05 09:41:39;;;;;;;401.80;246.80;;;8.20;99.90;;;;;;5067517;28;20077;-80
2021/01/05 09:44:06;;;;;;;158.10;88.22;;;8.30;99.90;;;;;;5090862;28;20360;-82
2021/01/05 09:46:33;;;;;;;142.25;91.63;;;8.30;99.90;;;;;;5087926;28;20016;-80
2021/01/05 09:48:59;;;;;;;104.35;58.25;;;8.80;99.90;;;;;;5082726;28;20048;-78
2021/01/05 09:51:27;;;;;;;64.18;42.65;;;9.60;99.90;;;;;;5061223;28;20079;-79
2021/01/05 09:53:53;;;;;;;72.10;44.83;;;10.30;99.90;;;;;;5055824;28;20431;-78
2021/01/05 09:56:19;;;;;;;180.80;100.85;;;9.60;99.90;;;;;;5052018;28;20381;-78
2021/01/05 09:58:46;;;;;;;90.07;56.65;;;9.00;99.90;;;;;;5034303;28;20033;-78
2021/01/05 10:01:12;;;;;;;87.03;52.67;;;8.70;99.90;;;;;;5052534;28;20031;-78
2021/01/05 10:03:38;;;;;;;82.68;52.33;;;8.20;99.90;;;;;;5051915;28;20048;-78
2021/01/05 10:06:05;;;;;;;123.90;76.47;;;7.90;99.90;;;;;;5052212;28;20028;-78
2021/01/05 10:08:31;;;;;;;87.68;53.65;;;7.80;99.90;;;;;;5051805;28;20093;-78
2021/01/05 10:10:57;;;;;;;96.38;58.53;;;7.60;99.90;;;;;;5051838;28;20025;-77
2021/01/05 10:13:23;;;;;;;89.78;53.83;;;7.50;99.90;;;;;;5051267;28;20511;-76
2021/01/05 10:15:49;;;;;;;84.75;51.00;;;7.50;99.90;;;;;;5051170;28;20087;-76
2021/01/05 10:18:15;;;;;;;84.80;50.80;;;7.50;99.90;;;;;;5050959;28;20130;-76
2021/01/05 10:20:41;;;;;;;137.75;84.53;;;7.30;99.90;;;;;;5051039;28;20029;-76
2021/01/05 10:23:07;;;;;;;141.10;68.35;;;7.40;99.90;;;;;;5050966;28;20108;-76
2021/01/05 10:25:33;;;;;;;102.18;60.90;;;7.60;99.90;;;;;;5051816;28;20060;-77
2021/01/05 10:27:59;;;;;;;103.70;57.22;;;7.50;99.90;;;;;;5051889;28;20112;-79
2021/01/05 10:30:25;;;;;;;97.95;58.72;;;7.40;99.90;;;;;;5052284;28;20124;-78
2021/01/05 10:32:51;;;;;;;106.80;61.20;;;7.40;99.90;;;;;;5055736;28;20021;-79
2021/01/05 10:35:19;;;;;;;97.68;58.08;;;7.30;99.90;;;;;;5055946;28;20029;-77
2021/01/05 10:37:46;;;;;;;88.97;55.35;;;7.30;99.90;;;;;;5037914;28;20094;-78
2021/01/05 10:40:13;;;;;;;97.75;60.28;;;7.30;99.90;;;;;;5055551;28;20455;-78
2021/01/05 10:42:43;;;;;;;85.38;50.60;;;7.40;99.90;;;;;;5055047;28;20116;-77
2021/01/05 10:45:12;;;;;;;101.75;60.97;;;8.10;99.90;;;;;;5054636;28;20029;-76
2021/01/05 10:47:39;;;;;;;101.03;64.15;;;7.80;99.90;;;;;;5058021;28;20079;-77
2021/01/05 10:50:10;;;;;;;120.10;78.65;;;7.70;99.90;;;;;;5075650;28;20442;-77
2021/01/05 10:52:36;;;;;;;119.72;75.10;;;7.60;99.90;;;;;;5094914;28;20032;-76
2021/01/05 10:55:03;;;;;;;95.38;59.58;;;7.60;99.90;;;;;;5094653;28;20020;-76
2021/01/05 10:57:29;;;;;;;90.53;55.15;;;7.60;99.90;;;;;;5094510;28;20020;-76
2021/01/05 10:59:55;;;;;;;102.32;59.72;;;7.60;99.90;;;;;;5094726;28;20097;-76
2021/01/05 11:02:21;;;;;;;114.20;64.13;;;7.60;99.90;;;;;;5076954;28;20067;-77
2021/01/05 11:04:47;;;;;;;178.07;96.97;;;7.60;99.90;;;;;;5074311;28;20036;-77
2021/01/05 11:07:14;;;;;;;106.55;60.78;;;7.50;99.90;;;;;;5073660;28;20029;-77
2021/01/05 11:09:42;;;;;;;98.88;57.78;;;7.50;99.90;;;;;;5062367;28;20021;-77
2021/01/05 11:12:13;;;;;;;102.43;63.03;;;7.60;99.90;;;;;;5041325;28;20028;-77
2021/01/05 11:14:43;;;;;;;127.57;72.28;;;7.60;99.90;;;;;;5054896;28;20059;-76
2021/01/05 11:17:09;;;;;;;105.83;64.27;;;7.50;99.90;;;;;;5054234;28;20064;-77
2021/01/05 11:19:36;;;;;;;108.47;64.72;;;7.50;99.90;;;;;;5055631;28;20270;-78
2021/01/05 11:22:05;;;;;;;99.93;61.92;;;7.50;99.90;;;;;;5055655;28;20472;-79
2021/01/05 11:24:35;;;;;;;100.43;60.25;;;7.50;99.90;;;;;;5073485;28;20111;-78
2021/01/05 11:27:01;;;;;;;88.65;55.72;;;7.40;99.90;;;;;;5075379;28;20021;-78
2021/01/05 11:29:27;;;;;;;105.18;60.85;;;7.50;99.90;;;;;;5075236;28;20048;-78
2021/01/05 11:32:00;;;;;;;106.25;61.58;;;7.30;99.90;;;;;;5075128;28;20021;-78
2021/01/05 11:34:27;;;;;;;105.45;60.30;;;7.40;99.90;;;;;;5075239;28;20503;-78
2021/01/05 11:36:53;;;;;;;89.68;54.30;;;7.40;99.90;;;;;;5075257;28;20090;-78
2021/01/05 11:39:20;;;;;;;89.25;54.15;;;7.50;99.90;;;;;;5075570;28;20582;-78
2021/01/05 11:41:46;;;;;;;102.68;57.33;;;7.40;99.90;;;;;;5074970;28;20064;-78
2021/01/05 11:44:13;;;;;;;118.43;70.70;;;7.40;99.90;;;;;;5074914;28;20024;-78
2021/01/05 11:46:39;;;;;;;111.63;61.08;;;7.40;99.90;;;;;;5074497;28;20862;-77
2021/01/05 11:49:05;;;;;;;107.47;58.95;;;7.50;99.90;;;;;;5074001;28;20024;-77
2021/01/05 11:51:34;;;;;;;99.50;58.05;;;7.80;99.90;;;;;;5074187;28;20017;-78
2021/01/05 11:54:00;;;;;;;97.72;58.60;;;7.80;99.90;;;;;;5074155;28;20104;-77
2021/01/05 11:56:28;;;;;;;124.57;69.63;;;7.80;99.90;;;;;;5074159;28;20035;-77
2021/01/05 11:58:55;;;;;;;110.40;67.32;;;7.90;99.90;;;;;;5073926;28;20036;-77
2021/01/05 12:01:22;;;;;;;102.82;64.20;;;7.80;99.90;;;;;;5071963;28;20108;-79
2021/01/05 12:03:50;;;;;;;105.95;65.38;;;7.90;99.90;;;;;;5095201;28;20429;-79
2021/01/05 12:06:18;;;;;;;103.18;61.03;;;7.70;99.90;;;;;;5095118;28;20034;-79
2021/01/05 12:08:45;;;;;;;110.95;63.90;;;7.40;99.90;;;;;;5095528;28;20020;-79
2021/01/05 12:11:31;;;;;;;165.45;87.22;;;7.30;99.90;;;;;;5095542;28;20024;-78
2021/01/05 12:13:57;;;;;;;107.40;63.35;;;7.40;99.90;;;;;;5093827;28;20024;-77
2021/01/05 12:16:36;;;;;;;114.88;66.43;;;7.40;99.90;;;;;;5075218;28;20249;-76
2021/01/05 12:19:07;;;;;;;124.85;70.30;;;7.40;99.90;;;;;;5093552;28;20027;-77
2021/01/05 12:21:38;;;;;;;107.32;61.60;;;7.30;99.90;;;;;;5093677;28;20018;-77
2021/01/05 12:24:12;;;;;;;100.30;59.75;;;7.20;99.90;;;;;;5094494;28;20064;-78
2021/01/05 12:26:39;;;;;;;124.95;74.25;;;7.10;99.90;;;;;;5094979;28;20024;-78
2021/01/05 12:29:11;;;;;;;111.57;63.70;;;7.10;99.90;;;;;;5094004;28;20040;-78
2021/01/05 12:31:45;;;;;;;97.28;58.47;;;7.20;99.90;;;;;;5094125;28;20034;-78
2021/01/05 12:34:12;;;;;;;108.30;62.50;;;7.20;99.90;;;;;;5076363;28;20024;-79
2021/01/05 12:36:40;;;;;;;104.95;62.60;;;7.20;99.90;;;;;;5065363;28;20074;-79
2021/01/05 12:39:13;;;;;;;110.43;64.93;;;7.20;99.90;;;;;;5063453;28;20027;-78
2021/01/05 12:41:39;;;;;;;123.95;69.93;;;7.20;99.90;;;;;;5064061;28;20021;-78
2021/01/05 12:44:07;;;;;;;113.30;63.42;;;7.30;99.90;;;;;;5063615;28;20628;-78
2021/01/05 12:46:36;;;;;;;110.03;63.20;;;7.30;99.90;;;;;;5062775;28;20483;-77